Pagina principale
METAR-TAF:

METAR-TAF

Aeroporti :

Brunei, Brunei

latitudine: 04-56N, longitudine: 114-56E, altezza: 22 m

Osservazione

Il bollettino è stato emesso 19 minuti fa, alle 23:00 UTC
Vento 3 kt da sud/sud-est
Temperature 28°C
Umidità 94%
Pressione 1009 hPa
Visibilità: 8000 m
Poco nuvoloso ad un'altezza di 1500 ft
Nubi sparse ad un'altezza di 14000 ft
Nuvoloso ad un'altezza di 30000 ft

METAR: WBSB 192300Z 16003KT 8000 FEW015 SCT140 BKN300 28/27 Q1009 NOSIG

Ora: 07:19 (23:19 UTC)

Previsione

Il bollettino è stato emesso 6 ore e 19 minuti fa, alle 17:00 UTC
Previsione valida dal 19 alle 18 UTC al 21 alle 00 UTC
Vento 3 kt da sud/sud-est
Visibilità: 8000 m
Poco nuvoloso ad un'altezza di 1500 ft
Evoluzione graduale
dal 20 alle 03 UTC al 20 alle 05 UTC
Vento 8 kt da ovest/sud-ovest
Poco nuvoloso ad un'altezza di 1600 ft
Poco nuvoloso ad un'altezza di 1700 ft, Cumulonembo.

TAF: WBSB 191700Z 1918/2100 16003KT 8000 FEW015 BECMG 2003/2005 24008KT FEW016 FEW017CB

Osservazioni e previsioni meteorologiche di più di 4000 aeroporti (messaggi METAR e TAF).

Le stazioni disponibili sono rappresentate dai dischi gialli e rossi sulla carta.

Puntare il mouse per vedere il nome della stazione.

Clicca sopra per visualizzare le osservazioni e previsioni meteorologiche.

Per cambiare la mappa : fare clic sui pulsanti verdi con una croce nera per ingrandire, il pulsante verde con un trattino per diminuire, o sulla freccia verde per le mappe adiacenti.


METAR-TAF: